sensor_id;sensor_type;location;lat;lon;timestamp;P1;durP1;ratioP1;P2;durP2;ratioP2
45806;SDS011;31507;51.494;7.518;2023-06-14T00:02:04;10.77;;;5.05;;
45806;SDS011;31507;51.494;7.518;2023-06-14T00:04:32;9.43;;;4.57;;
45806;SDS011;31507;51.494;7.518;2023-06-14T00:06:58;6.25;;;4.68;;
45806;SDS011;31507;51.494;7.518;2023-06-14T00:09:24;10.77;;;5.07;;
45806;SDS011;31507;51.494;7.518;2023-06-14T00:11:50;12.13;;;4.75;;
45806;SDS011;31507;51.494;7.518;2023-06-14T00:14:15;7.80;;;5.40;;
45806;SDS011;31507;51.494;7.518;2023-06-14T00:16:41;10.85;;;5.75;;
45806;SDS011;31507;51.494;7.518;2023-06-14T00:19:07;16.13;;;4.82;;
45806;SDS011;31507;51.494;7.518;2023-06-14T00:21:35;7.03;;;4.97;;
45806;SDS011;31507;51.494;7.518;2023-06-14T00:24:04;8.80;;;5.13;;
45806;SDS011;31507;51.494;7.518;2023-06-14T00:26:30;8.27;;;5.15;;
45806;SDS011;31507;51.494;7.518;2023-06-14T00:28:55;8.32;;;5.50;;
45806;SDS011;31507;51.494;7.518;2023-06-14T00:31:21;6.72;;;4.78;;
45806;SDS011;31507;51.494;7.518;2023-06-14T00:33:48;5.95;;;4.72;;
45806;SDS011;31507;51.494;7.518;2023-06-14T00:36:13;6.95;;;5.10;;
45806;SDS011;31507;51.494;7.518;2023-06-14T00:38:39;28.42;;;5.57;;
45806;SDS011;31507;51.494;7.518;2023-06-14T00:41:04;8.88;;;4.88;;
45806;SDS011;31507;51.494;7.518;2023-06-14T00:43:30;7.65;;;5.25;;
45806;SDS011;31507;51.494;7.518;2023-06-14T00:45:56;13.27;;;4.88;;
45806;SDS011;31507;51.494;7.518;2023-06-14T00:48:21;6.50;;;4.78;;
45806;SDS011;31507;51.494;7.518;2023-06-14T00:50:48;9.80;;;4.90;;
45806;SDS011;31507;51.494;7.518;2023-06-14T00:53:15;7.55;;;4.97;;
45806;SDS011;31507;51.494;7.518;2023-06-14T00:55:42;9.55;;;4.55;;
45806;SDS011;31507;51.494;7.518;2023-06-14T00:58:08;15.90;;;5.15;;
45806;SDS011;31507;51.494;7.518;2023-06-14T01:00:35;8.13;;;4.90;;
45806;SDS011;31507;51.494;7.518;2023-06-14T01:03:01;10.13;;;4.90;;
45806;SDS011;31507;51.494;7.518;2023-06-14T01:05:27;9.30;;;4.40;;
45806;SDS011;31507;51.494;7.518;2023-06-14T01:13:27;7.90;;;4.60;;
45806;SDS011;31507;51.494;7.518;2023-06-14T01:15:59;7.60;;;4.82;;
45806;SDS011;31507;51.494;7.518;2023-06-14T01:18:26;12.18;;;4.72;;
45806;SDS011;31507;51.494;7.518;2023-06-14T01:20:54;7.85;;;4.55;;
45806;SDS011;31507;51.494;7.518;2023-06-14T01:23:21;7.85;;;4.63;;
45806;SDS011;31507;51.494;7.518;2023-06-14T01:25:48;7.78;;;4.50;;
45806;SDS011;31507;51.494;7.518;2023-06-14T01:28:17;10.32;;;4.88;;
45806;SDS011;31507;51.494;7.518;2023-06-14T01:30:45;7.70;;;4.78;;
45806;SDS011;31507;51.494;7.518;2023-06-14T01:33:15;9.15;;;4.78;;
45806;SDS011;31507;51.494;7.518;2023-06-14T01:35:44;7.25;;;4.97;;
45806;SDS011;31507;51.494;7.518;2023-06-14T01:38:12;9.10;;;4.15;;
45806;SDS011;31507;51.494;7.518;2023-06-14T01:40:38;13.55;;;4.95;;
45806;SDS011;31507;51.494;7.518;2023-06-14T01:43:05;6.07;;;4.15;;
45806;SDS011;31507;51.494;7.518;2023-06-14T01:45:31;7.50;;;4.50;;
45806;SDS011;31507;51.494;7.518;2023-06-14T01:47:58;9.82;;;4.13;;
45806;SDS011;31507;51.494;7.518;2023-06-14T01:50:27;11.38;;;4.88;;
45806;SDS011;31507;51.494;7.518;2023-06-14T01:52:55;9.32;;;4.78;;
45806;SDS011;31507;51.494;7.518;2023-06-14T01:55:20;7.47;;;4.47;;
45806;SDS011;31507;51.494;7.518;2023-06-14T01:57:46;11.32;;;4.50;;
45806;SDS011;31507;51.494;7.518;2023-06-14T02:00:13;7.13;;;4.28;;
45806;SDS011;31507;51.494;7.518;2023-06-14T02:02:40;6.63;;;4.63;;
45806;SDS011;31507;51.494;7.518;2023-06-14T02:05:06;11.23;;;4.80;;
45806;SDS011;31507;51.494;7.518;2023-06-14T02:07:32;9.50;;;4.63;;
45806;SDS011;31507;51.494;7.518;2023-06-14T02:09:58;10.30;;;4.30;;
45806;SDS011;31507;51.494;7.518;2023-06-14T02:12:24;5.20;;;3.92;;
45806;SDS011;31507;51.494;7.518;2023-06-14T02:14:50;10.52;;;3.67;;
45806;SDS011;31507;51.494;7.518;2023-06-14T02:17:16;6.88;;;4.40;;
45806;SDS011;31507;51.494;7.518;2023-06-14T02:19:42;5.90;;;4.25;;
45806;SDS011;31507;51.494;7.518;2023-06-14T02:22:08;5.82;;;4.00;;
45806;SDS011;31507;51.494;7.518;2023-06-14T02:24:33;10.30;;;4.00;;
45806;SDS011;31507;51.494;7.518;2023-06-14T02:27:00;7.78;;;4.20;;
45806;SDS011;31507;51.494;7.518;2023-06-14T02:29:26;9.70;;;4.25;;
45806;SDS011;31507;51.494;7.518;2023-06-14T02:31:52;6.70;;;4.30;;
45806;SDS011;31507;51.494;7.518;2023-06-14T02:34:18;9.80;;;4.10;;
45806;SDS011;31507;51.494;7.518;2023-06-14T02:36:45;5.47;;;3.67;;
45806;SDS011;31507;51.494;7.518;2023-06-14T02:39:10;10.85;;;3.97;;
45806;SDS011;31507;51.494;7.518;2023-06-14T02:41:36;11.52;;;4.10;;
45806;SDS011;31507;51.494;7.518;2023-06-14T02:44:02;7.78;;;3.70;;
45806;SDS011;31507;51.494;7.518;2023-06-14T02:46:28;7.47;;;3.90;;
45806;SDS011;31507;51.494;7.518;2023-06-14T02:48:53;5.35;;;3.75;;
45806;SDS011;31507;51.494;7.518;2023-06-14T02:51:19;5.18;;;3.80;;
45806;SDS011;31507;51.494;7.518;2023-06-14T02:53:44;6.82;;;4.30;;
45806;SDS011;31507;51.494;7.518;2023-06-14T02:56:10;7.43;;;3.80;;
45806;SDS011;31507;51.494;7.518;2023-06-14T02:58:37;6.03;;;3.38;;
45806;SDS011;31507;51.494;7.518;2023-06-14T03:01:04;5.47;;;3.55;;
45806;SDS011;31507;51.494;7.518;2023-06-14T03:03:30;7.07;;;3.70;;
45806;SDS011;31507;51.494;7.518;2023-06-14T03:05:56;3.65;;;3.30;;
45806;SDS011;31507;51.494;7.518;2023-06-14T03:08:22;7.10;;;3.22;;
45806;SDS011;31507;51.494;7.518;2023-06-14T03:10:52;13.15;;;3.90;;
45806;SDS011;31507;51.494;7.518;2023-06-14T03:13:18;4.25;;;3.30;;
45806;SDS011;31507;51.494;7.518;2023-06-14T03:15:46;9.60;;;3.85;;
45806;SDS011;31507;51.494;7.518;2023-06-14T03:18:15;6.45;;;3.10;;
45806;SDS011;31507;51.494;7.518;2023-06-14T03:20:44;7.53;;;3.63;;
45806;SDS011;31507;51.494;7.518;2023-06-14T03:23:10;12.25;;;3.30;;
45806;SDS011;31507;51.494;7.518;2023-06-14T03:25:37;8.57;;;3.65;;
45806;SDS011;31507;51.494;7.518;2023-06-14T03:28:06;6.05;;;3.50;;
45806;SDS011;31507;51.494;7.518;2023-06-14T03:30:32;5.78;;;3.90;;
45806;SDS011;31507;51.494;7.518;2023-06-14T03:32:58;11.27;;;3.05;;
45806;SDS011;31507;51.494;7.518;2023-06-14T03:35:26;9.70;;;3.20;;
45806;SDS011;31507;51.494;7.518;2023-06-14T03:37:52;7.75;;;3.63;;
45806;SDS011;31507;51.494;7.518;2023-06-14T03:40:18;8.60;;;3.50;;
45806;SDS011;31507;51.494;7.518;2023-06-14T03:42:45;10.35;;;3.80;;
45806;SDS011;31507;51.494;7.518;2023-06-14T03:45:10;6.70;;;3.33;;
45806;SDS011;31507;51.494;7.518;2023-06-14T03:47:36;9.40;;;4.00;;
45806;SDS011;31507;51.494;7.518;2023-06-14T03:50:02;7.13;;;2.90;;
45806;SDS011;31507;51.494;7.518;2023-06-14T03:52:28;11.20;;;3.38;;
45806;SDS011;31507;51.494;7.518;2023-06-14T03:54:54;9.30;;;3.50;;
45806;SDS011;31507;51.494;7.518;2023-06-14T03:57:20;7.35;;;3.20;;
45806;SDS011;31507;51.494;7.518;2023-06-14T03:59:46;8.25;;;3.22;;
45806;SDS011;31507;51.494;7.518;2023-06-14T04:02:12;6.75;;;3.17;;
45806;SDS011;31507;51.494;7.518;2023-06-14T04:04:40;3.95;;;3.10;;
45806;SDS011;31507;51.494;7.518;2023-06-14T04:07:09;8.40;;;3.40;;
45806;SDS011;31507;51.494;7.518;2023-06-14T04:09:36;11.25;;;3.28;;
45806;SDS011;31507;51.494;7.518;2023-06-14T04:12:03;7.53;;;2.97;;
45806;SDS011;31507;51.494;7.518;2023-06-14T04:14:29;7.57;;;3.08;;
45806;SDS011;31507;51.494;7.518;2023-06-14T04:16:55;8.55;;;3.08;;
45806;SDS011;31507;51.494;7.518;2023-06-14T04:19:21;5.82;;;3.25;;
45806;SDS011;31507;51.494;7.518;2023-06-14T04:21:47;13.98;;;3.65;;
45806;SDS011;31507;51.494;7.518;2023-06-14T04:24:12;5.10;;;3.03;;
45806;SDS011;31507;51.494;7.518;2023-06-14T04:26:42;11.55;;;3.42;;
45806;SDS011;31507;51.494;7.518;2023-06-14T04:29:09;6.50;;;3.00;;
45806;SDS011;31507;51.494;7.518;2023-06-14T04:31:42;5.22;;;3.35;;
45806;SDS011;31507;51.494;7.518;2023-06-14T04:34:09;10.73;;;3.40;;
45806;SDS011;31507;51.494;7.518;2023-06-14T04:36:41;7.43;;;3.55;;
45806;SDS011;31507;51.494;7.518;2023-06-14T04:39:17;8.57;;;3.13;;
45806;SDS011;31507;51.494;7.518;2023-06-14T04:41:43;7.72;;;3.53;;
45806;SDS011;31507;51.494;7.518;2023-06-14T04:44:09;9.95;;;3.38;;
45806;SDS011;31507;51.494;7.518;2023-06-14T04:46:35;10.20;;;3.00;;
45806;SDS011;31507;51.494;7.518;2023-06-14T04:49:14;13.18;;;3.22;;
45806;SDS011;31507;51.494;7.518;2023-06-14T04:51:43;8.45;;;3.13;;
45806;SDS011;31507;51.494;7.518;2023-06-14T04:54:10;4.32;;;2.88;;
45806;SDS011;31507;51.494;7.518;2023-06-14T04:56:40;4.88;;;3.00;;
45806;SDS011;31507;51.494;7.518;2023-06-14T04:59:07;5.72;;;3.60;;
45806;SDS011;31507;51.494;7.518;2023-06-14T05:01:34;3.55;;;2.70;;
45806;SDS011;31507;51.494;7.518;2023-06-14T05:04:00;9.35;;;3.00;;
45806;SDS011;31507;51.494;7.518;2023-06-14T05:06:26;7.32;;;3.00;;
45806;SDS011;31507;51.494;7.518;2023-06-14T05:08:52;10.15;;;3.30;;
45806;SDS011;31507;51.494;7.518;2023-06-14T05:11:18;11.57;;;3.10;;
45806;SDS011;31507;51.494;7.518;2023-06-14T05:13:44;12.85;;;3.25;;
45806;SDS011;31507;51.494;7.518;2023-06-14T05:16:10;7.13;;;3.13;;
45806;SDS011;31507;51.494;7.518;2023-06-14T05:18:37;9.45;;;2.95;;
45806;SDS011;31507;51.494;7.518;2023-06-14T05:21:03;10.50;;;2.95;;
45806;SDS011;31507;51.494;7.518;2023-06-14T05:23:32;5.20;;;3.03;;
45806;SDS011;31507;51.494;7.518;2023-06-14T05:25:57;10.95;;;2.50;;
45806;SDS011;31507;51.494;7.518;2023-06-14T05:28:23;11.30;;;2.60;;
45806;SDS011;31507;51.494;7.518;2023-06-14T05:30:51;6.55;;;2.90;;
45806;SDS011;31507;51.494;7.518;2023-06-14T05:33:16;7.53;;;2.97;;
45806;SDS011;31507;51.494;7.518;2023-06-14T05:35:42;6.45;;;2.45;;
45806;SDS011;31507;51.494;7.518;2023-06-14T05:38:08;13.52;;;3.25;;
45806;SDS011;31507;51.494;7.518;2023-06-14T05:40:33;5.72;;;3.17;;
45806;SDS011;31507;51.494;7.518;2023-06-14T05:42:59;6.65;;;2.67;;
45806;SDS011;31507;51.494;7.518;2023-06-14T05:45:25;2.85;;;2.47;;
45806;SDS011;31507;51.494;7.518;2023-06-14T05:47:51;6.15;;;2.67;;
45806;SDS011;31507;51.494;7.518;2023-06-14T05:50:19;9.45;;;3.00;;
45806;SDS011;31507;51.494;7.518;2023-06-14T05:52:45;5.50;;;2.60;;
45806;SDS011;31507;51.494;7.518;2023-06-14T05:55:11;10.45;;;2.72;;
45806;SDS011;31507;51.494;7.518;2023-06-14T05:57:39;5.75;;;2.40;;
45806;SDS011;31507;51.494;7.518;2023-06-14T06:00:06;8.90;;;2.50;;
45806;SDS011;31507;51.494;7.518;2023-06-14T06:05:08;7.72;;;2.45;;
45806;SDS011;31507;51.494;7.518;2023-06-14T06:07:34;6.40;;;2.60;;
45806;SDS011;31507;51.494;7.518;2023-06-14T06:10:01;6.03;;;2.50;;
45806;SDS011;31507;51.494;7.518;2023-06-14T06:12:26;7.38;;;2.67;;
45806;SDS011;31507;51.494;7.518;2023-06-14T06:14:52;6.63;;;3.00;;
45806;SDS011;31507;51.494;7.518;2023-06-14T06:17:18;9.52;;;2.97;;
45806;SDS011;31507;51.494;7.518;2023-06-14T06:19:43;7.63;;;2.78;;
45806;SDS011;31507;51.494;7.518;2023-06-14T06:22:09;15.80;;;3.05;;
45806;SDS011;31507;51.494;7.518;2023-06-14T06:24:35;9.20;;;3.20;;
45806;SDS011;31507;51.494;7.518;2023-06-14T06:27:00;8.82;;;2.88;;
45806;SDS011;31507;51.494;7.518;2023-06-14T06:29:27;5.95;;;2.97;;
45806;SDS011;31507;51.494;7.518;2023-06-14T06:31:52;11.55;;;2.70;;
45806;SDS011;31507;51.494;7.518;2023-06-14T06:34:18;7.90;;;2.60;;
45806;SDS011;31507;51.494;7.518;2023-06-14T06:36:44;5.68;;;2.70;;
45806;SDS011;31507;51.494;7.518;2023-06-14T06:39:09;9.02;;;2.85;;
45806;SDS011;31507;51.494;7.518;2023-06-14T06:41:37;7.38;;;2.63;;
45806;SDS011;31507;51.494;7.518;2023-06-14T06:44:04;10.98;;;2.65;;
45806;SDS011;31507;51.494;7.518;2023-06-14T06:46:31;10.77;;;2.45;;
45806;SDS011;31507;51.494;7.518;2023-06-14T06:48:57;6.35;;;2.47;;
45806;SDS011;31507;51.494;7.518;2023-06-14T06:51:23;7.80;;;2.60;;
45806;SDS011;31507;51.494;7.518;2023-06-14T06:53:52;9.73;;;3.00;;
45806;SDS011;31507;51.494;7.518;2023-06-14T06:56:19;3.47;;;2.05;;
45806;SDS011;31507;51.494;7.518;2023-06-14T06:58:44;6.22;;;2.55;;
45806;SDS011;31507;51.494;7.518;2023-06-14T07:01:10;4.35;;;2.28;;
45806;SDS011;31507;51.494;7.518;2023-06-14T07:03:36;5.05;;;2.17;;
45806;SDS011;31507;51.494;7.518;2023-06-14T07:06:02;3.95;;;2.30;;
45806;SDS011;31507;51.494;7.518;2023-06-14T07:08:28;7.68;;;2.40;;
45806;SDS011;31507;51.494;7.518;2023-06-14T07:10:54;8.63;;;2.13;;
45806;SDS011;31507;51.494;7.518;2023-06-14T07:13:20;15.32;;;2.25;;
45806;SDS011;31507;51.494;7.518;2023-06-14T07:15:46;8.00;;;2.00;;
45806;SDS011;31507;51.494;7.518;2023-06-14T07:18:12;3.20;;;2.00;;
45806;SDS011;31507;51.494;7.518;2023-06-14T07:20:38;3.42;;;2.15;;
45806;SDS011;31507;51.494;7.518;2023-06-14T07:23:03;8.30;;;2.20;;
45806;SDS011;31507;51.494;7.518;2023-06-14T07:25:30;7.55;;;2.00;;
45806;SDS011;31507;51.494;7.518;2023-06-14T07:27:56;10.85;;;2.08;;
45806;SDS011;31507;51.494;7.518;2023-06-14T07:30:21;3.85;;;1.92;;
45806;SDS011;31507;51.494;7.518;2023-06-14T07:32:50;4.68;;;2.00;;
45806;SDS011;31507;51.494;7.518;2023-06-14T07:35:17;8.00;;;2.25;;
45806;SDS011;31507;51.494;7.518;2023-06-14T07:37:43;15.95;;;2.17;;
45806;SDS011;31507;51.494;7.518;2023-06-14T07:40:09;4.60;;;1.75;;
45806;SDS011;31507;51.494;7.518;2023-06-14T07:42:35;11.07;;;2.38;;
45806;SDS011;31507;51.494;7.518;2023-06-14T07:45:01;6.75;;;1.73;;
45806;SDS011;31507;51.494;7.518;2023-06-14T07:47:30;4.28;;;1.80;;
45806;SDS011;31507;51.494;7.518;2023-06-14T07:49:56;6.53;;;1.70;;
45806;SDS011;31507;51.494;7.518;2023-06-14T07:52:22;4.90;;;2.03;;
45806;SDS011;31507;51.494;7.518;2023-06-14T07:54:48;12.45;;;2.28;;
45806;SDS011;31507;51.494;7.518;2023-06-14T07:57:13;4.40;;;2.10;;
45806;SDS011;31507;51.494;7.518;2023-06-14T07:59:39;1.77;;;1.55;;
45806;SDS011;31507;51.494;7.518;2023-06-14T08:02:05;6.07;;;1.50;;
45806;SDS011;31507;51.494;7.518;2023-06-14T08:04:31;3.85;;;1.75;;
45806;SDS011;31507;51.494;7.518;2023-06-14T08:06:58;4.38;;;1.50;;
45806;SDS011;31507;51.494;7.518;2023-06-14T08:09:24;10.10;;;1.60;;
45806;SDS011;31507;51.494;7.518;2023-06-14T08:11:50;2.35;;;1.30;;
45806;SDS011;31507;51.494;7.518;2023-06-14T08:14:16;10.73;;;1.55;;
45806;SDS011;31507;51.494;7.518;2023-06-14T08:16:41;4.72;;;1.65;;
45806;SDS011;31507;51.494;7.518;2023-06-14T08:19:07;4.82;;;1.55;;
45806;SDS011;31507;51.494;7.518;2023-06-14T08:21:33;1.30;;;1.20;;
45806;SDS011;31507;51.494;7.518;2023-06-14T08:24:01;6.50;;;1.33;;
45806;SDS011;31507;51.494;7.518;2023-06-14T08:26:27;6.38;;;1.42;;
45806;SDS011;31507;51.494;7.518;2023-06-14T08:28:54;3.03;;;1.25;;
45806;SDS011;31507;51.494;7.518;2023-06-14T08:31:20;1.92;;;1.35;;
45806;SDS011;31507;51.494;7.518;2023-06-14T08:33:46;3.90;;;1.20;;
45806;SDS011;31507;51.494;7.518;2023-06-14T08:36:11;10.75;;;1.23;;
45806;SDS011;31507;51.494;7.518;2023-06-14T08:38:37;6.30;;;1.50;;
45806;SDS011;31507;51.494;7.518;2023-06-14T08:41:04;6.30;;;1.35;;
45806;SDS011;31507;51.494;7.518;2023-06-14T08:43:31;8.55;;;1.70;;
45806;SDS011;31507;51.494;7.518;2023-06-14T08:46:00;6.22;;;1.33;;
45806;SDS011;31507;51.494;7.518;2023-06-14T08:48:29;15.98;;;1.75;;
45806;SDS011;31507;51.494;7.518;2023-06-14T08:50:57;6.80;;;1.42;;
45806;SDS011;31507;51.494;7.518;2023-06-14T08:53:30;4.10;;;1.00;;
45806;SDS011;31507;51.494;7.518;2023-06-14T08:55:59;5.80;;;0.90;;
45806;SDS011;31507;51.494;7.518;2023-06-14T08:58:30;4.20;;;1.33;;
45806;SDS011;31507;51.494;7.518;2023-06-14T09:00:59;1.50;;;0.90;;
45806;SDS011;31507;51.494;7.518;2023-06-14T09:05:58;2.78;;;1.20;;
45806;SDS011;31507;51.494;7.518;2023-06-14T09:08:25;5.40;;;0.95;;
45806;SDS011;31507;51.494;7.518;2023-06-14T09:10:55;4.68;;;0.98;;
45806;SDS011;31507;51.494;7.518;2023-06-14T09:13:21;1.15;;;1.05;;
45806;SDS011;31507;51.494;7.518;2023-06-14T09:15:47;2.97;;;1.08;;
45806;SDS011;31507;51.494;7.518;2023-06-14T09:18:12;14.95;;;1.52;;
45806;SDS011;31507;51.494;7.518;2023-06-14T09:20:38;10.27;;;1.40;;
45806;SDS011;31507;51.494;7.518;2023-06-14T09:23:05;3.10;;;1.17;;
45806;SDS011;31507;51.494;7.518;2023-06-14T09:25:32;6.47;;;1.40;;
45806;SDS011;31507;51.494;7.518;2023-06-14T09:27:58;8.40;;;1.35;;
45806;SDS011;31507;51.494;7.518;2023-06-14T09:30:24;1.45;;;1.20;;
45806;SDS011;31507;51.494;7.518;2023-06-14T09:32:49;14.70;;;1.77;;
45806;SDS011;31507;51.494;7.518;2023-06-14T09:35:17;6.60;;;1.25;;
45806;SDS011;31507;51.494;7.518;2023-06-14T09:37:43;8.23;;;1.55;;
45806;SDS011;31507;51.494;7.518;2023-06-14T09:40:09;9.23;;;1.70;;
45806;SDS011;31507;51.494;7.518;2023-06-14T09:42:35;7.22;;;1.35;;
45806;SDS011;31507;51.494;7.518;2023-06-14T09:45:02;3.17;;;1.20;;
45806;SDS011;31507;51.494;7.518;2023-06-14T09:47:28;9.52;;;1.30;;
45806;SDS011;31507;51.494;7.518;2023-06-14T09:49:54;11.82;;;1.52;;
45806;SDS011;31507;51.494;7.518;2023-06-14T09:52:21;11.27;;;1.70;;
45806;SDS011;31507;51.494;7.518;2023-06-14T09:54:51;23.98;;;2.05;;
45806;SDS011;31507;51.494;7.518;2023-06-14T09:57:22;5.35;;;1.35;;
45806;SDS011;31507;51.494;7.518;2023-06-14T09:59:48;15.63;;;2.00;;
45806;SDS011;31507;51.494;7.518;2023-06-14T10:02:29;7.45;;;1.30;;
45806;SDS011;31507;51.494;7.518;2023-06-14T10:05:02;9.85;;;1.45;;
45806;SDS011;31507;51.494;7.518;2023-06-14T10:07:38;10.35;;;1.40;;
45806;SDS011;31507;51.494;7.518;2023-06-14T10:10:18;4.07;;;1.50;;
45806;SDS011;31507;51.494;7.518;2023-06-14T10:12:44;6.25;;;1.15;;
45806;SDS011;31507;51.494;7.518;2023-06-14T10:15:12;6.20;;;1.38;;
45806;SDS011;31507;51.494;7.518;2023-06-14T10:20:28;5.90;;;1.35;;
45806;SDS011;31507;51.494;7.518;2023-06-14T10:23:04;2.70;;;1.27;;
45806;SDS011;31507;51.494;7.518;2023-06-14T10:25:35;6.20;;;1.20;;
45806;SDS011;31507;51.494;7.518;2023-06-14T10:33:39;12.13;;;1.33;;
45806;SDS011;31507;51.494;7.518;2023-06-14T10:41:42;3.90;;;1.25;;
45806;SDS011;31507;51.494;7.518;2023-06-14T10:49:20;4.35;;;1.40;;
45806;SDS011;31507;51.494;7.518;2023-06-14T10:52:14;6.03;;;1.30;;
45806;SDS011;31507;51.494;7.518;2023-06-14T10:57:30;9.90;;;1.30;;
45806;SDS011;31507;51.494;7.518;2023-06-14T11:00:00;9.23;;;1.27;;
45806;SDS011;31507;51.494;7.518;2023-06-14T11:05:26;4.20;;;1.30;;
45806;SDS011;31507;51.494;7.518;2023-06-14T11:10:41;3.80;;;1.15;;
45806;SDS011;31507;51.494;7.518;2023-06-14T11:13:10;5.85;;;1.42;;
45806;SDS011;31507;51.494;7.518;2023-06-14T11:15:37;3.85;;;1.52;;
45806;SDS011;31507;51.494;7.518;2023-06-14T11:18:08;4.38;;;1.48;;
45806;SDS011;31507;51.494;7.518;2023-06-14T11:20:35;3.17;;;1.40;;
45806;SDS011;31507;51.494;7.518;2023-06-14T11:23:01;6.43;;;1.42;;
45806;SDS011;31507;51.494;7.518;2023-06-14T11:25:28;9.68;;;1.55;;
45806;SDS011;31507;51.494;7.518;2023-06-14T11:27:54;8.75;;;1.60;;
45806;SDS011;31507;51.494;7.518;2023-06-14T11:30:21;2.70;;;1.50;;
45806;SDS011;31507;51.494;7.518;2023-06-14T11:32:47;4.65;;;1.27;;
45806;SDS011;31507;51.494;7.518;2023-06-14T11:35:14;7.50;;;1.50;;
45806;SDS011;31507;51.494;7.518;2023-06-14T11:37:40;7.70;;;1.63;;
45806;SDS011;31507;51.494;7.518;2023-06-14T11:40:07;5.85;;;1.60;;
45806;SDS011;31507;51.494;7.518;2023-06-14T11:42:35;5.63;;;1.63;;
45806;SDS011;31507;51.494;7.518;2023-06-14T11:45:01;6.15;;;1.40;;
45806;SDS011;31507;51.494;7.518;2023-06-14T11:47:33;2.72;;;1.48;;
45806;SDS011;31507;51.494;7.518;2023-06-14T11:50:00;19.98;;;2.20;;
45806;SDS011;31507;51.494;7.518;2023-06-14T11:52:27;6.35;;;1.40;;
45806;SDS011;31507;51.494;7.518;2023-06-14T11:54:53;5.75;;;1.27;;
45806;SDS011;31507;51.494;7.518;2023-06-14T11:57:19;6.90;;;1.73;;
45806;SDS011;31507;51.494;7.518;2023-06-14T11:59:45;2.67;;;1.60;;
45806;SDS011;31507;51.494;7.518;2023-06-14T12:02:14;2.95;;;1.30;;
45806;SDS011;31507;51.494;7.518;2023-06-14T12:04:44;4.03;;;1.50;;
45806;SDS011;31507;51.494;7.518;2023-06-14T12:07:15;11.30;;;1.98;;
45806;SDS011;31507;51.494;7.518;2023-06-14T12:10:27;2.42;;;1.33;;
45806;SDS011;31507;51.494;7.518;2023-06-14T12:12:34;5.15;;;1.27;;
45806;SDS011;31507;51.494;7.518;2023-06-14T12:15:02;9.60;;;1.35;;
45806;SDS011;31507;51.494;7.518;2023-06-14T12:17:31;3.70;;;1.75;;
45806;SDS011;31507;51.494;7.518;2023-06-14T12:20:05;12.40;;;1.90;;
45806;SDS011;31507;51.494;7.518;2023-06-14T12:22:52;11.50;;;1.60;;
45806;SDS011;31507;51.494;7.518;2023-06-14T12:27:56;3.08;;;1.70;;
45806;SDS011;31507;51.494;7.518;2023-06-14T12:30:29;7.95;;;1.60;;
45806;SDS011;31507;51.494;7.518;2023-06-14T12:32:55;3.53;;;1.52;;
45806;SDS011;31507;51.494;7.518;2023-06-14T12:35:20;7.13;;;1.90;;
45806;SDS011;31507;51.494;7.518;2023-06-14T12:37:46;3.83;;;1.52;;
45806;SDS011;31507;51.494;7.518;2023-06-14T12:40:12;5.18;;;1.30;;
45806;SDS011;31507;51.494;7.518;2023-06-14T12:42:39;4.45;;;1.48;;
45806;SDS011;31507;51.494;7.518;2023-06-14T12:45:05;2.13;;;1.40;;
45806;SDS011;31507;51.494;7.518;2023-06-14T12:47:31;3.63;;;1.30;;
45806;SDS011;31507;51.494;7.518;2023-06-14T12:49:57;4.18;;;1.48;;
45806;SDS011;31507;51.494;7.518;2023-06-14T12:52:22;4.38;;;1.50;;
45806;SDS011;31507;51.494;7.518;2023-06-14T12:54:48;8.98;;;1.73;;
45806;SDS011;31507;51.494;7.518;2023-06-14T12:57:14;7.97;;;1.30;;
45806;SDS011;31507;51.494;7.518;2023-06-14T12:59:40;2.13;;;1.33;;
45806;SDS011;31507;51.494;7.518;2023-06-14T13:02:15;8.35;;;1.70;;
45806;SDS011;31507;51.494;7.518;2023-06-14T13:04:42;9.88;;;1.80;;
45806;SDS011;31507;51.494;7.518;2023-06-14T13:07:08;3.05;;;1.60;;
45806;SDS011;31507;51.494;7.518;2023-06-14T13:09:35;4.60;;;1.38;;
45806;SDS011;31507;51.494;7.518;2023-06-14T13:12:01;3.50;;;1.30;;
45806;SDS011;31507;51.494;7.518;2023-06-14T13:14:27;5.82;;;1.52;;
45806;SDS011;31507;51.494;7.518;2023-06-14T13:16:52;7.57;;;1.80;;
45806;SDS011;31507;51.494;7.518;2023-06-14T13:19:18;5.28;;;1.58;;
45806;SDS011;31507;51.494;7.518;2023-06-14T13:21:43;2.65;;;1.50;;
45806;SDS011;31507;51.494;7.518;2023-06-14T13:24:09;4.80;;;1.70;;
45806;SDS011;31507;51.494;7.518;2023-06-14T13:26:35;6.95;;;1.60;;
45806;SDS011;31507;51.494;7.518;2023-06-14T13:29:00;4.20;;;1.33;;
45806;SDS011;31507;51.494;7.518;2023-06-14T13:31:26;5.60;;;1.70;;
45806;SDS011;31507;51.494;7.518;2023-06-14T13:33:51;8.90;;;1.90;;
45806;SDS011;31507;51.494;7.518;2023-06-14T13:36:17;7.13;;;1.50;;
45806;SDS011;31507;51.494;7.518;2023-06-14T13:38:43;7.07;;;2.00;;
45806;SDS011;31507;51.494;7.518;2023-06-14T13:41:08;6.13;;;1.45;;
45806;SDS011;31507;51.494;7.518;2023-06-14T13:43:34;5.60;;;1.75;;
45806;SDS011;31507;51.494;7.518;2023-06-14T13:45:59;14.15;;;1.95;;
45806;SDS011;31507;51.494;7.518;2023-06-14T13:48:25;3.58;;;1.50;;
45806;SDS011;31507;51.494;7.518;2023-06-14T13:50:51;6.38;;;1.70;;
45806;SDS011;31507;51.494;7.518;2023-06-14T13:53:16;8.82;;;1.67;;
45806;SDS011;31507;51.494;7.518;2023-06-14T13:55:42;13.18;;;2.20;;
45806;SDS011;31507;51.494;7.518;2023-06-14T13:58:08;9.15;;;1.77;;
45806;SDS011;31507;51.494;7.518;2023-06-14T14:00:34;9.45;;;1.60;;
45806;SDS011;31507;51.494;7.518;2023-06-14T14:03:02;12.30;;;1.63;;
45806;SDS011;31507;51.494;7.518;2023-06-14T14:05:28;17.10;;;1.85;;
45806;SDS011;31507;51.494;7.518;2023-06-14T14:07:55;7.97;;;2.25;;
45806;SDS011;31507;51.494;7.518;2023-06-14T14:10:22;3.38;;;1.60;;
45806;SDS011;31507;51.494;7.518;2023-06-14T14:12:49;2.05;;;1.40;;
45806;SDS011;31507;51.494;7.518;2023-06-14T14:15:16;2.67;;;1.70;;
45806;SDS011;31507;51.494;7.518;2023-06-14T14:17:41;8.02;;;1.60;;
45806;SDS011;31507;51.494;7.518;2023-06-14T14:20:07;3.35;;;1.85;;
45806;SDS011;31507;51.494;7.518;2023-06-14T14:22:33;6.72;;;1.80;;
45806;SDS011;31507;51.494;7.518;2023-06-14T14:24:59;3.80;;;1.70;;
45806;SDS011;31507;51.494;7.518;2023-06-14T14:27:25;6.95;;;1.58;;
45806;SDS011;31507;51.494;7.518;2023-06-14T14:29:50;1.90;;;1.40;;
45806;SDS011;31507;51.494;7.518;2023-06-14T14:32:16;4.85;;;1.60;;
45806;SDS011;31507;51.494;7.518;2023-06-14T14:34:41;2.45;;;1.40;;
45806;SDS011;31507;51.494;7.518;2023-06-14T14:37:07;1.88;;;1.55;;
45806;SDS011;31507;51.494;7.518;2023-06-14T14:39:33;5.43;;;1.67;;
45806;SDS011;31507;51.494;7.518;2023-06-14T14:41:59;10.32;;;2.00;;
45806;SDS011;31507;51.494;7.518;2023-06-14T14:44:25;4.43;;;1.42;;
45806;SDS011;31507;51.494;7.518;2023-06-14T14:46:50;3.45;;;1.50;;
45806;SDS011;31507;51.494;7.518;2023-06-14T14:49:16;5.47;;;1.63;;
45806;SDS011;31507;51.494;7.518;2023-06-14T14:51:42;7.68;;;1.52;;
45806;SDS011;31507;51.494;7.518;2023-06-14T14:54:07;3.72;;;1.90;;
45806;SDS011;31507;51.494;7.518;2023-06-14T14:56:33;1.67;;;1.55;;
45806;SDS011;31507;51.494;7.518;2023-06-14T14:59:00;6.00;;;1.50;;
45806;SDS011;31507;51.494;7.518;2023-06-14T15:01:26;4.50;;;1.25;;
45806;SDS011;31507;51.494;7.518;2023-06-14T15:03:51;7.75;;;2.05;;
45806;SDS011;31507;51.494;7.518;2023-06-14T15:06:17;5.82;;;2.10;;
45806;SDS011;31507;51.494;7.518;2023-06-14T15:08:43;7.18;;;1.55;;
45806;SDS011;31507;51.494;7.518;2023-06-14T15:11:09;5.13;;;1.65;;
45806;SDS011;31507;51.494;7.518;2023-06-14T15:13:34;6.13;;;1.50;;
45806;SDS011;31507;51.494;7.518;2023-06-14T15:16:00;7.50;;;1.88;;
45806;SDS011;31507;51.494;7.518;2023-06-14T15:18:26;7.35;;;1.80;;
45806;SDS011;31507;51.494;7.518;2023-06-14T15:20:51;21.13;;;1.85;;
45806;SDS011;31507;51.494;7.518;2023-06-14T15:23:17;4.03;;;1.67;;
45806;SDS011;31507;51.494;7.518;2023-06-14T15:25:45;8.65;;;1.45;;